sensor_id;sensor_type;location;lat;lon;timestamp;temperature;humidity
70170;DHT22;57543;45.442;9.212;2022-08-05T00:00:43;31.20;45.43
70170;DHT22;57543;45.442;9.212;2022-08-05T00:03:48;31.18;45.70
70170;DHT22;57543;45.442;9.212;2022-08-05T00:06:52;31.17;45.81
70170;DHT22;57543;45.442;9.212;2022-08-05T00:09:55;31.10;45.87
70170;DHT22;57543;45.442;9.212;2022-08-05T00:12:59;31.07;45.98
70170;DHT22;57543;45.442;9.212;2022-08-05T00:16:03;31.04;46.17
70170;DHT22;57543;45.442;9.212;2022-08-05T00:19:08;31.01;46.23
70170;DHT22;57543;45.442;9.212;2022-08-05T00:22:12;30.90;46.32
70170;DHT22;57543;45.442;9.212;2022-08-05T00:25:16;30.94;46.23
70170;DHT22;57543;45.442;9.212;2022-08-05T00:28:19;31.06;46.02
70170;DHT22;57543;45.442;9.212;2022-08-05T00:31:23;30.97;46.20
70170;DHT22;57543;45.442;9.212;2022-08-05T00:34:27;30.93;46.12
70170;DHT22;57543;45.442;9.212;2022-08-05T00:37:31;30.87;45.97
70170;DHT22;57543;45.442;9.212;2022-08-05T00:40:48;31.10;45.33
70170;DHT22;57543;45.442;9.212;2022-08-05T00:43:52;30.90;45.45
70170;DHT22;57543;45.442;9.212;2022-08-05T00:46:57;30.86;45.64
70170;DHT22;57543;45.442;9.212;2022-08-05T00:50:00;30.80;45.81
70170;DHT22;57543;45.442;9.212;2022-08-05T00:53:04;31.76;44.18
70170;DHT22;57543;45.442;9.212;2022-08-05T00:56:08;32.75;42.08
70170;DHT22;57543;45.442;9.212;2022-08-05T00:59:12;33.81;40.00
70170;DHT22;57543;45.442;9.212;2022-08-05T01:02:16;34.62;38.72
70170;DHT22;57543;45.442;9.212;2022-08-05T01:05:19;35.62;36.99
70170;DHT22;57543;45.442;9.212;2022-08-05T01:08:23;36.26;36.04
70170;DHT22;57543;45.442;9.212;2022-08-05T01:11:32;36.73;35.38
70170;DHT22;57543;45.442;9.212;2022-08-05T01:14:46;36.92;34.91
70170;DHT22;57543;45.442;9.212;2022-08-05T01:17:55;35.73;36.86
70170;DHT22;57543;45.442;9.212;2022-08-05T01:28:22;33.13;41.08
70170;DHT22;57543;45.442;9.212;2022-08-05T01:31:33;32.64;41.97
70170;DHT22;57543;45.442;9.212;2022-08-05T01:34:42;32.24;42.68
70170;DHT22;57543;45.442;9.212;2022-08-05T01:37:51;32.00;43.06
70170;DHT22;57543;45.442;9.212;2022-08-05T01:40:59;31.82;43.44
70170;DHT22;57543;45.442;9.212;2022-08-05T01:44:05;31.66;43.64
70170;DHT22;57543;45.442;9.212;2022-08-05T01:47:10;31.45;44.12
70170;DHT22;57543;45.442;9.212;2022-08-05T01:50:19;31.31;44.33
70170;DHT22;57543;45.442;9.212;2022-08-05T01:53:24;31.20;44.68
70170;DHT22;57543;45.442;9.212;2022-08-05T01:56:31;31.07;44.90
70170;DHT22;57543;45.442;9.212;2022-08-05T01:59:38;30.99;45.18
70170;DHT22;57543;45.442;9.212;2022-08-05T02:02:47;30.87;45.31
70170;DHT22;57543;45.442;9.212;2022-08-05T02:05:53;30.82;45.40
70170;DHT22;57543;45.442;9.212;2022-08-05T02:08:58;30.69;45.55
70170;DHT22;57543;45.442;9.212;2022-08-05T02:15:49;30.61;45.81
70170;DHT22;57543;45.442;9.212;2022-08-05T02:19:05;30.54;45.99
70170;DHT22;57543;45.442;9.212;2022-08-05T02:22:18;30.48;46.08
70170;DHT22;57543;45.442;9.212;2022-08-05T02:25:27;30.37;46.27
70170;DHT22;57543;45.442;9.212;2022-08-05T02:28:36;30.28;46.42
70170;DHT22;57543;45.442;9.212;2022-08-05T02:31:42;30.25;46.48
70170;DHT22;57543;45.442;9.212;2022-08-05T02:34:48;30.21;46.61
70170;DHT22;57543;45.442;9.212;2022-08-05T02:37:54;30.21;46.59
70170;DHT22;57543;45.442;9.212;2022-08-05T02:40:59;30.21;46.67
70170;DHT22;57543;45.442;9.212;2022-08-05T02:44:07;30.18;46.74
70170;DHT22;57543;45.442;9.212;2022-08-05T02:47:11;30.13;46.80
70170;DHT22;57543;45.442;9.212;2022-08-05T02:50:17;30.10;46.85
70170;DHT22;57543;45.442;9.212;2022-08-05T02:53:21;30.07;46.95
70170;DHT22;57543;45.442;9.212;2022-08-05T02:56:26;30.04;47.00
70170;DHT22;57543;45.442;9.212;2022-08-05T02:59:31;30.00;46.99
70170;DHT22;57543;45.442;9.212;2022-08-05T03:02:38;29.99;47.10
70170;DHT22;57543;45.442;9.212;2022-08-05T03:05:43;29.99;47.04
70170;DHT22;57543;45.442;9.212;2022-08-05T03:08:48;30.00;46.89
70170;DHT22;57543;45.442;9.212;2022-08-05T03:11:52;29.97;47.02
70170;DHT22;57543;45.442;9.212;2022-08-05T03:14:56;29.94;47.03
70170;DHT22;57543;45.442;9.212;2022-08-05T03:18:00;30.00;47.12
70170;DHT22;57543;45.442;9.212;2022-08-05T03:21:03;29.89;47.10
70170;DHT22;57543;45.442;9.212;2022-08-05T03:24:08;29.84;47.12
70170;DHT22;57543;45.442;9.212;2022-08-05T03:27:12;29.79;47.29
70170;DHT22;57543;45.442;9.212;2022-08-05T03:30:15;29.65;47.74
70170;DHT22;57543;45.442;9.212;2022-08-05T03:33:19;29.69;47.77
70170;DHT22;57543;45.442;9.212;2022-08-05T03:36:24;29.76;47.18
70170;DHT22;57543;45.442;9.212;2022-08-05T03:39:27;29.79;47.37
70170;DHT22;57543;45.442;9.212;2022-08-05T03:42:31;29.52;48.11
70170;DHT22;57543;45.442;9.212;2022-08-05T03:45:35;29.42;48.27
70170;DHT22;57543;45.442;9.212;2022-08-05T03:48:39;29.49;48.42
70170;DHT22;57543;45.442;9.212;2022-08-05T03:52:16;29.48;48.08
70170;DHT22;57543;45.442;9.212;2022-08-05T03:55:25;29.35;48.89
70170;DHT22;57543;45.442;9.212;2022-08-05T03:58:31;29.28;48.95
70170;DHT22;57543;45.442;9.212;2022-08-05T04:01:37;29.28;49.23
70170;DHT22;57543;45.442;9.212;2022-08-05T04:04:43;29.28;49.47
70170;DHT22;57543;45.442;9.212;2022-08-05T04:07:47;29.20;49.62
70170;DHT22;57543;45.442;9.212;2022-08-05T04:10:51;29.27;49.18
70170;DHT22;57543;45.442;9.212;2022-08-05T04:13:55;29.20;49.19
70170;DHT22;57543;45.442;9.212;2022-08-05T04:16:59;29.20;49.50
70170;DHT22;57543;45.442;9.212;2022-08-05T04:20:04;29.18;49.76
70170;DHT22;57543;45.442;9.212;2022-08-05T04:23:08;29.15;49.60
70170;DHT22;57543;45.442;9.212;2022-08-05T04:26:15;29.14;49.65
70170;DHT22;57543;45.442;9.212;2022-08-05T04:29:19;29.13;49.37
70170;DHT22;57543;45.442;9.212;2022-08-05T04:32:22;29.32;48.87
70170;DHT22;57543;45.442;9.212;2022-08-05T04:35:26;29.27;48.36
70170;DHT22;57543;45.442;9.212;2022-08-05T04:38:30;29.37;48.14
70170;DHT22;57543;45.442;9.212;2022-08-05T04:41:33;29.45;47.86
70170;DHT22;57543;45.442;9.212;2022-08-05T04:44:37;29.54;48.26
70170;DHT22;57543;45.442;9.212;2022-08-05T04:47:41;29.56;48.17
70170;DHT22;57543;45.442;9.212;2022-08-05T04:50:47;29.69;48.06
70170;DHT22;57543;45.442;9.212;2022-08-05T04:53:50;29.76;48.22
70170;DHT22;57543;45.442;9.212;2022-08-05T04:56:55;29.73;48.49
70170;DHT22;57543;45.442;9.212;2022-08-05T04:59:58;29.70;48.48
70170;DHT22;57543;45.442;9.212;2022-08-05T05:03:03;29.63;48.55
70170;DHT22;57543;45.442;9.212;2022-08-05T05:06:11;29.63;48.62
70170;DHT22;57543;45.442;9.212;2022-08-05T05:09:15;29.59;48.93
70170;DHT22;57543;45.442;9.212;2022-08-05T05:12:19;29.59;49.07
70170;DHT22;57543;45.442;9.212;2022-08-05T05:15:24;29.49;49.49
70170;DHT22;57543;45.442;9.212;2022-08-05T05:18:28;29.31;49.94
70170;DHT22;57543;45.442;9.212;2022-08-05T05:21:31;29.20;50.32
70170;DHT22;57543;45.442;9.212;2022-08-05T05:24:34;29.37;49.85
70170;DHT22;57543;45.442;9.212;2022-08-05T05:27:38;29.34;50.15
70170;DHT22;57543;45.442;9.212;2022-08-05T05:30:41;29.34;50.15
70170;DHT22;57543;45.442;9.212;2022-08-05T05:33:45;29.28;50.33
70170;DHT22;57543;45.442;9.212;2022-08-05T05:36:49;29.37;50.37
70170;DHT22;57543;45.442;9.212;2022-08-05T05:39:52;29.39;50.32
70170;DHT22;57543;45.442;9.212;2022-08-05T05:42:56;29.39;50.46
70170;DHT22;57543;45.442;9.212;2022-08-05T05:46:00;29.44;49.90
70170;DHT22;57543;45.442;9.212;2022-08-05T05:49:04;29.49;49.60
70170;DHT22;57543;45.442;9.212;2022-08-05T05:52:08;29.61;49.26
70170;DHT22;57543;45.442;9.212;2022-08-05T05:55:13;29.55;49.51
70170;DHT22;57543;45.442;9.212;2022-08-05T05:58:17;29.54;49.41
70170;DHT22;57543;45.442;9.212;2022-08-05T06:01:21;29.47;49.64
70170;DHT22;57543;45.442;9.212;2022-08-05T06:04:25;29.56;49.14
70170;DHT22;57543;45.442;9.212;2022-08-05T06:07:28;29.59;49.39
70170;DHT22;57543;45.442;9.212;2022-08-05T06:10:32;29.55;49.71
70170;DHT22;57543;45.442;9.212;2022-08-05T06:13:36;29.62;50.24
70170;DHT22;57543;45.442;9.212;2022-08-05T06:16:40;29.80;50.71
70170;DHT22;57543;45.442;9.212;2022-08-05T06:19:44;29.87;50.74
70170;DHT22;57543;45.442;9.212;2022-08-05T06:22:48;29.99;50.21
70170;DHT22;57543;45.442;9.212;2022-08-05T06:25:51;30.18;50.41
70170;DHT22;57543;45.442;9.212;2022-08-05T06:28:55;30.25;49.60
70170;DHT22;57543;45.442;9.212;2022-08-05T06:31:59;30.21;48.90
70170;DHT22;57543;45.442;9.212;2022-08-05T06:35:02;30.24;47.90
70170;DHT22;57543;45.442;9.212;2022-08-05T06:38:06;30.31;47.26
70170;DHT22;57543;45.442;9.212;2022-08-05T06:41:10;30.35;47.08
70170;DHT22;57543;45.442;9.212;2022-08-05T06:44:14;30.52;46.36
70170;DHT22;57543;45.442;9.212;2022-08-05T06:47:18;30.65;46.59
70170;DHT22;57543;45.442;9.212;2022-08-05T06:50:22;30.59;46.46
70170;DHT22;57543;45.442;9.212;2022-08-05T06:53:25;30.69;45.93
70170;DHT22;57543;45.442;9.212;2022-08-05T06:56:31;30.69;46.12
70170;DHT22;57543;45.442;9.212;2022-08-05T06:59:35;30.72;45.85
70170;DHT22;57543;45.442;9.212;2022-08-05T07:02:42;30.71;45.97
70170;DHT22;57543;45.442;9.212;2022-08-05T07:05:46;30.63;46.47
70170;DHT22;57543;45.442;9.212;2022-08-05T07:08:50;30.72;47.93
70170;DHT22;57543;45.442;9.212;2022-08-05T07:11:53;30.68;47.16
70170;DHT22;57543;45.442;9.212;2022-08-05T07:14:58;30.83;46.41
70170;DHT22;57543;45.442;9.212;2022-08-05T07:18:20;30.82;46.72
70170;DHT22;57543;45.442;9.212;2022-08-05T07:21:24;30.99;46.84
70170;DHT22;57543;45.442;9.212;2022-08-05T07:24:28;31.13;46.00
70170;DHT22;57543;45.442;9.212;2022-08-05T07:27:32;31.17;45.37
70170;DHT22;57543;45.442;9.212;2022-08-05T07:30:36;31.21;45.20
70170;DHT22;57543;45.442;9.212;2022-08-05T07:33:40;31.27;45.53
70170;DHT22;57543;45.442;9.212;2022-08-05T07:36:44;31.38;45.26
70170;DHT22;57543;45.442;9.212;2022-08-05T07:39:48;31.37;43.13
70170;DHT22;57543;45.442;9.212;2022-08-05T07:42:52;31.30;43.29
70170;DHT22;57543;45.442;9.212;2022-08-05T07:45:56;31.16;43.44
70170;DHT22;57543;45.442;9.212;2022-08-05T07:49:01;30.68;43.86
70170;DHT22;57543;45.442;9.212;2022-08-05T07:52:05;30.51;45.01
70170;DHT22;57543;45.442;9.212;2022-08-05T07:55:09;30.46;45.26
70170;DHT22;57543;45.442;9.212;2022-08-05T07:58:14;30.34;45.65
70170;DHT22;57543;45.442;9.212;2022-08-05T08:01:19;30.31;44.91
70170;DHT22;57543;45.442;9.212;2022-08-05T08:04:23;30.54;45.54
70170;DHT22;57543;45.442;9.212;2022-08-05T08:07:27;30.78;46.16
70170;DHT22;57543;45.442;9.212;2022-08-05T08:10:31;30.96;45.00
70170;DHT22;57543;45.442;9.212;2022-08-05T08:13:34;31.07;44.90
70170;DHT22;57543;45.442;9.212;2022-08-05T08:16:38;30.94;44.72
70170;DHT22;57543;45.442;9.212;2022-08-05T08:19:43;30.75;44.93
70170;DHT22;57543;45.442;9.212;2022-08-05T08:22:52;31.13;44.26
70170;DHT22;57543;45.442;9.212;2022-08-05T08:25:55;31.13;44.79
70170;DHT22;57543;45.442;9.212;2022-08-05T08:28:59;31.07;44.53
70170;DHT22;57543;45.442;9.212;2022-08-05T08:32:03;31.31;44.12
70170;DHT22;57543;45.442;9.212;2022-08-05T08:35:07;31.62;43.63
70170;DHT22;57543;45.442;9.212;2022-08-05T08:38:11;31.75;42.31
70170;DHT22;57543;45.442;9.212;2022-08-05T08:41:16;32.05;41.39
70170;DHT22;57543;45.442;9.212;2022-08-05T08:44:23;32.34;41.93
70170;DHT22;57543;45.442;9.212;2022-08-05T08:47:26;32.38;40.70
70170;DHT22;57543;45.442;9.212;2022-08-05T08:50:31;32.69;40.74
70170;DHT22;57543;45.442;9.212;2022-08-05T08:53:36;32.83;40.37
70170;DHT22;57543;45.442;9.212;2022-08-05T08:56:40;32.98;40.25
70170;DHT22;57543;45.442;9.212;2022-08-05T08:59:45;32.83;40.11
70170;DHT22;57543;45.442;9.212;2022-08-05T09:02:49;32.98;41.05
70170;DHT22;57543;45.442;9.212;2022-08-05T09:05:55;33.40;40.84
70170;DHT22;57543;45.442;9.212;2022-08-05T09:09:00;33.17;40.00
70170;DHT22;57543;45.442;9.212;2022-08-05T09:12:06;33.33;39.69
70170;DHT22;57543;45.442;9.212;2022-08-05T09:15:10;32.58;40.65
70170;DHT22;57543;45.442;9.212;2022-08-05T09:18:14;32.82;40.04
70170;DHT22;57543;45.442;9.212;2022-08-05T09:21:18;33.09;39.80
70170;DHT22;57543;45.442;9.212;2022-08-05T09:24:24;33.46;39.04
70170;DHT22;57543;45.442;9.212;2022-08-05T09:27:34;33.99;38.77
70170;DHT22;57543;45.442;9.212;2022-08-05T09:30:41;33.88;37.36
70170;DHT22;57543;45.442;9.212;2022-08-05T09:33:54;33.92;37.50
70170;DHT22;57543;45.442;9.212;2022-08-05T09:36:58;33.65;37.75
70170;DHT22;57543;45.442;9.212;2022-08-05T09:40:02;33.38;38.67
70170;DHT22;57543;45.442;9.212;2022-08-05T09:43:07;33.54;37.45
70170;DHT22;57543;45.442;9.212;2022-08-05T09:46:32;33.85;38.51
70170;DHT22;57543;45.442;9.212;2022-08-05T09:49:44;33.95;37.62
70170;DHT22;57543;45.442;9.212;2022-08-05T09:52:56;33.65;37.63
70170;DHT22;57543;45.442;9.212;2022-08-05T09:56:00;34.24;36.68
70170;DHT22;57543;45.442;9.212;2022-08-05T09:59:06;34.37;36.98
70170;DHT22;57543;45.442;9.212;2022-08-05T10:02:10;34.65;36.19
70170;DHT22;57543;45.442;9.212;2022-08-05T10:05:26;35.17;36.61
70170;DHT22;57543;45.442;9.212;2022-08-05T10:08:30;35.27;36.48
70170;DHT22;57543;45.442;9.212;2022-08-05T10:11:34;35.07;36.66
70170;DHT22;57543;45.442;9.212;2022-08-05T10:14:38;34.43;37.60
70170;DHT22;57543;45.442;9.212;2022-08-05T10:17:42;34.61;37.54
70170;DHT22;57543;45.442;9.212;2022-08-05T10:20:53;34.77;37.15
70170;DHT22;57543;45.442;9.212;2022-08-05T10:23:58;34.43;37.50
70170;DHT22;57543;45.442;9.212;2022-08-05T10:27:01;34.02;38.70
70170;DHT22;57543;45.442;9.212;2022-08-05T10:30:05;34.06;37.86
70170;DHT22;57543;45.442;9.212;2022-08-05T10:33:09;34.55;37.41
70170;DHT22;57543;45.442;9.212;2022-08-05T10:36:14;35.03;37.22
70170;DHT22;57543;45.442;9.212;2022-08-05T10:39:21;35.33;35.90
70170;DHT22;57543;45.442;9.212;2022-08-05T10:42:27;35.55;35.38
70170;DHT22;57543;45.442;9.212;2022-08-05T10:45:32;35.77;34.73
70170;DHT22;57543;45.442;9.212;2022-08-05T10:48:41;36.23;34.01
70170;DHT22;57543;45.442;9.212;2022-08-05T10:51:50;36.56;33.47
70170;DHT22;57543;45.442;9.212;2022-08-05T10:55:05;36.73;32.98
70170;DHT22;57543;45.442;9.212;2022-08-05T10:58:12;36.81;33.13
70170;DHT22;57543;45.442;9.212;2022-08-05T11:01:16;37.09;32.48
70170;DHT22;57543;45.442;9.212;2022-08-05T11:04:21;37.02;32.36
70170;DHT22;57543;45.442;9.212;2022-08-05T11:07:25;37.02;32.78
70170;DHT22;57543;45.442;9.212;2022-08-05T11:10:30;37.12;31.67
70170;DHT22;57543;45.442;9.212;2022-08-05T11:13:39;37.26;31.61
70170;DHT22;57543;45.442;9.212;2022-08-05T11:16:43;37.37;31.39
70170;DHT22;57543;45.442;9.212;2022-08-05T11:19:47;37.52;31.89
70170;DHT22;57543;45.442;9.212;2022-08-05T11:22:51;37.61;31.80
70170;DHT22;57543;45.442;9.212;2022-08-05T11:26:10;37.61;32.08
70170;DHT22;57543;45.442;9.212;2022-08-05T11:29:37;37.82;31.39
70170;DHT22;57543;45.442;9.212;2022-08-05T11:32:43;37.88;31.34
70170;DHT22;57543;45.442;9.212;2022-08-05T11:36:04;37.94;31.61
70170;DHT22;57543;45.442;9.212;2022-08-05T11:39:09;38.19;31.83
70170;DHT22;57543;45.442;9.212;2022-08-05T11:42:15;38.25;30.77
70170;DHT22;57543;45.442;9.212;2022-08-05T11:45:25;38.42;30.05
70170;DHT22;57543;45.442;9.212;2022-08-05T11:48:31;38.49;29.18
70170;DHT22;57543;45.442;9.212;2022-08-05T11:51:36;38.40;29.42
70170;DHT22;57543;45.442;9.212;2022-08-05T11:54:40;38.23;30.24
70170;DHT22;57543;45.442;9.212;2022-08-05T11:57:44;38.23;30.32
70170;DHT22;57543;45.442;9.212;2022-08-05T12:00:48;38.77;29.28
70170;DHT22;57543;45.442;9.212;2022-08-05T12:03:54;38.80;28.20
70170;DHT22;57543;45.442;9.212;2022-08-05T12:06:58;38.97;27.87
70170;DHT22;57543;45.442;9.212;2022-08-05T12:10:03;38.95;27.77
70170;DHT22;57543;45.442;9.212;2022-08-05T12:13:07;38.94;27.66
70170;DHT22;57543;45.442;9.212;2022-08-05T12:16:16;38.83;26.84
70170;DHT22;57543;45.442;9.212;2022-08-05T12:19:20;38.60;26.30
70170;DHT22;57543;45.442;9.212;2022-08-05T12:22:28;38.62;28.31
70170;DHT22;57543;45.442;9.212;2022-08-05T12:25:47;38.55;28.93
70170;DHT22;57543;45.442;9.212;2022-08-05T12:28:51;38.53;28.25
70170;DHT22;57543;45.442;9.212;2022-08-05T12:31:57;38.62;29.22
70170;DHT22;57543;45.442;9.212;2022-08-05T12:35:06;38.80;28.73
70170;DHT22;57543;45.442;9.212;2022-08-05T12:38:10;39.00;28.41
70170;DHT22;57543;45.442;9.212;2022-08-05T12:41:14;39.01;28.58
70170;DHT22;57543;45.442;9.212;2022-08-05T12:44:18;39.12;28.45
70170;DHT22;57543;45.442;9.212;2022-08-05T12:47:27;39.19;28.27
70170;DHT22;57543;45.442;9.212;2022-08-05T12:50:30;39.28;28.66
70170;DHT22;57543;45.442;9.212;2022-08-05T12:53:40;39.12;30.46
70170;DHT22;57543;45.442;9.212;2022-08-05T12:56:47;39.22;29.65
70170;DHT22;57543;45.442;9.212;2022-08-05T12:59:53;39.28;29.15
70170;DHT22;57543;45.442;9.212;2022-08-05T13:02:59;39.18;28.98
70170;DHT22;57543;45.442;9.212;2022-08-05T13:06:06;39.15;28.98
70170;DHT22;57543;45.442;9.212;2022-08-05T13:09:11;39.14;29.07
70170;DHT22;57543;45.442;9.212;2022-08-05T13:12:16;39.17;29.39
70170;DHT22;57543;45.442;9.212;2022-08-05T13:15:20;39.04;29.38
70170;DHT22;57543;45.442;9.212;2022-08-05T13:18:36;39.07;29.69
70170;DHT22;57543;45.442;9.212;2022-08-05T13:21:40;39.14;29.86
70170;DHT22;57543;45.442;9.212;2022-08-05T13:24:43;39.15;29.17
70170;DHT22;57543;45.442;9.212;2022-08-05T13:27:49;39.08;27.87
70170;DHT22;57543;45.442;9.212;2022-08-05T13:30:53;39.04;27.81
70170;DHT22;57543;45.442;9.212;2022-08-05T13:33:57;39.01;27.70
70170;DHT22;57543;45.442;9.212;2022-08-05T13:37:00;39.00;27.92
70170;DHT22;57543;45.442;9.212;2022-08-05T13:40:05;38.93;28.20
70170;DHT22;57543;45.442;9.212;2022-08-05T13:43:08;38.73;27.52
70170;DHT22;57543;45.442;9.212;2022-08-05T13:46:13;38.84;26.69
70170;DHT22;57543;45.442;9.212;2022-08-05T13:49:16;38.81;27.22
70170;DHT22;57543;45.442;9.212;2022-08-05T13:52:24;38.78;27.58
70170;DHT22;57543;45.442;9.212;2022-08-05T13:55:28;38.88;27.56
70170;DHT22;57543;45.442;9.212;2022-08-05T13:58:32;39.00;27.51
70170;DHT22;57543;45.442;9.212;2022-08-05T14:01:36;38.60;27.22
70170;DHT22;57543;45.442;9.212;2022-08-05T14:04:45;38.59;27.46
70170;DHT22;57543;45.442;9.212;2022-08-05T14:08:07;38.76;28.16
70170;DHT22;57543;45.442;9.212;2022-08-05T14:11:10;38.90;28.80
70170;DHT22;57543;45.442;9.212;2022-08-05T14:14:14;39.03;27.22
70170;DHT22;57543;45.442;9.212;2022-08-05T14:17:18;39.15;26.07
70170;DHT22;57543;45.442;9.212;2022-08-05T14:20:22;39.17;26.96
70170;DHT22;57543;45.442;9.212;2022-08-05T14:23:25;39.04;27.95
70170;DHT22;57543;45.442;9.212;2022-08-05T14:26:29;39.05;27.80
70170;DHT22;57543;45.442;9.212;2022-08-05T14:29:32;39.03;27.19
70170;DHT22;57543;45.442;9.212;2022-08-05T14:32:36;39.12;28.09
70170;DHT22;57543;45.442;9.212;2022-08-05T14:35:40;38.80;29.73
70170;DHT22;57543;45.442;9.212;2022-08-05T14:38:44;38.86;29.56
70170;DHT22;57543;45.442;9.212;2022-08-05T14:41:48;38.60;29.76
70170;DHT22;57543;45.442;9.212;2022-08-05T14:44:52;38.60;29.91
70170;DHT22;57543;45.442;9.212;2022-08-05T14:47:56;38.66;30.80
70170;DHT22;57543;45.442;9.212;2022-08-05T14:50:59;38.62;29.62
70170;DHT22;57543;45.442;9.212;2022-08-05T14:54:04;38.64;30.23
70170;DHT22;57543;45.442;9.212;2022-08-05T14:57:08;38.73;30.69
70170;DHT22;57543;45.442;9.212;2022-08-05T15:00:12;38.77;30.17
70170;DHT22;57543;45.442;9.212;2022-08-05T15:03:15;38.80;30.62
70170;DHT22;57543;45.442;9.212;2022-08-05T15:06:19;38.81;28.87
70170;DHT22;57543;45.442;9.212;2022-08-05T15:09:23;38.88;28.14
70170;DHT22;57543;45.442;9.212;2022-08-05T15:12:26;38.93;28.89
70170;DHT22;57543;45.442;9.212;2022-08-05T15:15:30;38.88;28.54
70170;DHT22;57543;45.442;9.212;2022-08-05T15:18:34;38.83;28.81
70170;DHT22;57543;45.442;9.212;2022-08-05T15:21:38;38.76;29.55
70170;DHT22;57543;45.442;9.212;2022-08-05T15:24:42;38.81;29.75
70170;DHT22;57543;45.442;9.212;2022-08-05T15:27:46;38.83;29.40
70170;DHT22;57543;45.442;9.212;2022-08-05T15:30:50;38.83;30.00
70170;DHT22;57543;45.442;9.212;2022-08-05T15:33:54;38.73;30.98
70170;DHT22;57543;45.442;9.212;2022-08-05T15:36:57;38.56;31.48
70170;DHT22;57543;45.442;9.212;2022-08-05T15:40:01;38.52;29.60
70170;DHT22;57543;45.442;9.212;2022-08-05T15:43:05;38.35;29.86
70170;DHT22;57543;45.442;9.212;2022-08-05T15:46:09;38.16;30.02
70170;DHT22;57543;45.442;9.212;2022-08-05T15:49:14;38.04;29.86
70170;DHT22;57543;45.442;9.212;2022-08-05T15:52:18;37.97;28.97
70170;DHT22;57543;45.442;9.212;2022-08-05T15:55:22;37.85;27.44
70170;DHT22;57543;45.442;9.212;2022-08-05T15:58:26;37.76;27.55
70170;DHT22;57543;45.442;9.212;2022-08-05T16:01:30;37.60;27.45
70170;DHT22;57543;45.442;9.212;2022-08-05T16:04:34;37.80;26.74
70170;DHT22;57543;45.442;9.212;2022-08-05T16:07:38;38.18;26.52
70170;DHT22;57543;45.442;9.212;2022-08-05T16:10:42;38.42;26.49
70170;DHT22;57543;45.442;9.212;2022-08-05T16:13:46;38.31;26.50
70170;DHT22;57543;45.442;9.212;2022-08-05T16:16:50;39.21;25.27
70170;DHT22;57543;45.442;9.212;2022-08-05T16:19:53;38.66;26.43
70170;DHT22;57543;45.442;9.212;2022-08-05T16:22:57;38.33;26.86
70170;DHT22;57543;45.442;9.212;2022-08-05T16:26:08;38.00;27.64
70170;DHT22;57543;45.442;9.212;2022-08-05T16:29:11;37.73;28.82
70170;DHT22;57543;45.442;9.212;2022-08-05T16:32:15;37.60;29.51
70170;DHT22;57543;45.442;9.212;2022-08-05T16:35:18;37.32;30.20
70170;DHT22;57543;45.442;9.212;2022-08-05T16:38:22;37.14;29.33
70170;DHT22;57543;45.442;9.212;2022-08-05T16:41:26;37.02;29.94
70170;DHT22;57543;45.442;9.212;2022-08-05T16:44:30;36.78;29.32
70170;DHT22;57543;45.442;9.212;2022-08-05T16:47:34;36.70;29.36
70170;DHT22;57543;45.442;9.212;2022-08-05T16:50:38;36.57;27.86
70170;DHT22;57543;45.442;9.212;2022-08-05T16:53:42;36.57;27.55
70170;DHT22;57543;45.442;9.212;2022-08-05T16:56:46;36.60;28.11
70170;DHT22;57543;45.442;9.212;2022-08-05T16:59:50;36.46;28.33
70170;DHT22;57543;45.442;9.212;2022-08-05T17:02:54;36.35;28.31
70170;DHT22;57543;45.442;9.212;2022-08-05T17:05:59;36.33;27.36
70170;DHT22;57543;45.442;9.212;2022-08-05T17:09:03;36.22;28.08
70170;DHT22;57543;45.442;9.212;2022-08-05T17:12:07;36.22;27.65
70170;DHT22;57543;45.442;9.212;2022-08-05T17:15:11;36.08;27.76
70170;DHT22;57543;45.442;9.212;2022-08-05T17:18:15;36.06;27.92
70170;DHT22;57543;45.442;9.212;2022-08-05T17:21:19;35.96;27.89
70170;DHT22;57543;45.442;9.212;2022-08-05T17:24:23;35.99;28.14
70170;DHT22;57543;45.442;9.212;2022-08-05T17:27:28;35.95;29.04
70170;DHT22;57543;45.442;9.212;2022-08-05T17:30:32;36.03;30.71
70170;DHT22;57543;45.442;9.212;2022-08-05T17:33:36;36.22;30.58
70170;DHT22;57543;45.442;9.212;2022-08-05T17:36:39;36.46;30.62
70170;DHT22;57543;45.442;9.212;2022-08-05T17:39:44;36.91;30.68
70170;DHT22;57543;45.442;9.212;2022-08-05T17:42:48;37.74;29.69
70170;DHT22;57543;45.442;9.212;2022-08-05T17:45:52;38.16;29.61
70170;DHT22;57543;45.442;9.212;2022-08-05T17:48:55;37.73;30.29
70170;DHT22;57543;45.442;9.212;2022-08-05T17:51:59;37.33;31.65
70170;DHT22;57543;45.442;9.212;2022-08-05T17:55:03;38.62;29.32
70170;DHT22;57543;45.442;9.212;2022-08-05T17:58:08;40.07;27.63
70170;DHT22;57543;45.442;9.212;2022-08-05T18:01:11;41.10;26.83
70170;DHT22;57543;45.442;9.212;2022-08-05T18:04:15;40.56;28.63
70170;DHT22;57543;45.442;9.212;2022-08-05T18:07:18;40.83;28.55
70170;DHT22;57543;45.442;9.212;2022-08-05T18:10:23;40.48;29.06
70170;DHT22;57543;45.442;9.212;2022-08-05T18:13:26;40.86;28.68
70170;DHT22;57543;45.442;9.212;2022-08-05T18:16:34;40.67;28.93
70170;DHT22;57543;45.442;9.212;2022-08-05T18:19:38;41.07;28.46
70170;DHT22;57543;45.442;9.212;2022-08-05T18:22:42;41.38;27.96
70170;DHT22;57543;45.442;9.212;2022-08-05T18:25:45;41.56;28.03
70170;DHT22;57543;45.442;9.212;2022-08-05T18:28:50;41.53;28.60
70170;DHT22;57543;45.442;9.212;2022-08-05T18:31:54;41.53;28.91
70170;DHT22;57543;45.442;9.212;2022-08-05T18:34:58;41.43;29.42
70170;DHT22;57543;45.442;9.212;2022-08-05T18:38:02;41.43;29.71
70170;DHT22;57543;45.442;9.212;2022-08-05T18:41:07;41.37;29.92
70170;DHT22;57543;45.442;9.212;2022-08-05T18:44:11;41.01;30.46
70170;DHT22;57543;45.442;9.212;2022-08-05T18:47:14;41.27;30.47
70170;DHT22;57543;45.442;9.212;2022-08-05T18:50:19;41.23;30.27
70170;DHT22;57543;45.442;9.212;2022-08-05T18:53:42;40.12;32.37
70170;DHT22;57543;45.442;9.212;2022-08-05T18:56:45;39.08;34.31
70170;DHT22;57543;45.442;9.212;2022-08-05T18:59:49;38.06;35.91
70170;DHT22;57543;45.442;9.212;2022-08-05T19:02:53;37.39;37.01
70170;DHT22;57543;45.442;9.212;2022-08-05T19:05:57;36.84;38.11
70170;DHT22;57543;45.442;9.212;2022-08-05T19:09:01;36.26;39.18
70170;DHT22;57543;45.442;9.212;2022-08-05T19:12:05;35.91;39.83
70170;DHT22;57543;45.442;9.212;2022-08-05T19:15:09;35.53;40.71
70170;DHT22;57543;45.442;9.212;2022-08-05T19:18:13;35.27;41.16
70170;DHT22;57543;45.442;9.212;2022-08-05T19:21:18;35.23;41.52
70170;DHT22;57543;45.442;9.212;2022-08-05T19:24:22;35.09;41.99
70170;DHT22;57543;45.442;9.212;2022-08-05T19:27:26;34.84;42.23
70170;DHT22;57543;45.442;9.212;2022-08-05T19:30:30;34.72;42.43
70170;DHT22;57543;45.442;9.212;2022-08-05T19:33:33;34.48;43.13
70170;DHT22;57543;45.442;9.212;2022-08-05T19:36:40;34.30;43.76
70170;DHT22;57543;45.442;9.212;2022-08-05T19:39:44;34.06;44.47